sensor_id;sensor_type;location;lat;lon;timestamp;P1;durP1;ratioP1;P2;durP2;ratioP2
52470;SDS011;38382;53.160;7.026;2022-11-25T00:01:23;14.18;;;4.32;;
52470;SDS011;38382;53.160;7.026;2022-11-25T00:03:50;14.25;;;4.15;;
52470;SDS011;38382;53.160;7.026;2022-11-25T00:06:28;19.27;;;4.40;;
52470;SDS011;38382;53.160;7.026;2022-11-25T00:08:59;13.80;;;4.47;;
52470;SDS011;38382;53.160;7.026;2022-11-25T00:11:27;13.02;;;4.03;;
52470;SDS011;38382;53.160;7.026;2022-11-25T00:13:53;18.25;;;4.30;;
52470;SDS011;38382;53.160;7.026;2022-11-25T00:16:22;21.70;;;4.68;;
52470;SDS011;38382;53.160;7.026;2022-11-25T00:18:51;17.35;;;4.30;;
52470;SDS011;38382;53.160;7.026;2022-11-25T00:21:19;16.05;;;4.22;;
52470;SDS011;38382;53.160;7.026;2022-11-25T00:23:51;16.65;;;4.32;;
52470;SDS011;38382;53.160;7.026;2022-11-25T00:26:36;14.80;;;4.85;;
52470;SDS011;38382;53.160;7.026;2022-11-25T00:29:03;17.52;;;4.47;;
52470;SDS011;38382;53.160;7.026;2022-11-25T00:31:31;14.02;;;4.22;;
52470;SDS011;38382;53.160;7.026;2022-11-25T00:33:58;13.85;;;3.58;;
52470;SDS011;38382;53.160;7.026;2022-11-25T00:36:25;17.88;;;4.70;;
52470;SDS011;38382;53.160;7.026;2022-11-25T00:38:53;14.60;;;4.30;;
52470;SDS011;38382;53.160;7.026;2022-11-25T00:41:24;12.02;;;4.15;;
52470;SDS011;38382;53.160;7.026;2022-11-25T00:44:09;20.35;;;4.43;;
52470;SDS011;38382;53.160;7.026;2022-11-25T00:46:55;14.85;;;4.68;;
52470;SDS011;38382;53.160;7.026;2022-11-25T00:49:21;11.60;;;4.35;;
52470;SDS011;38382;53.160;7.026;2022-11-25T00:51:46;13.55;;;3.90;;
52470;SDS011;38382;53.160;7.026;2022-11-25T00:54:12;15.93;;;4.25;;
52470;SDS011;38382;53.160;7.026;2022-11-25T00:56:39;16.33;;;4.65;;
52470;SDS011;38382;53.160;7.026;2022-11-25T00:59:05;16.83;;;4.75;;
52470;SDS011;38382;53.160;7.026;2022-11-25T01:01:31;18.17;;;4.15;;
52470;SDS011;38382;53.160;7.026;2022-11-25T01:03:57;16.50;;;4.78;;
52470;SDS011;38382;53.160;7.026;2022-11-25T01:06:23;15.40;;;4.35;;
52470;SDS011;38382;53.160;7.026;2022-11-25T01:08:50;17.17;;;4.20;;
52470;SDS011;38382;53.160;7.026;2022-11-25T01:11:16;14.65;;;4.10;;
52470;SDS011;38382;53.160;7.026;2022-11-25T01:13:43;17.67;;;4.57;;
52470;SDS011;38382;53.160;7.026;2022-11-25T01:16:11;12.82;;;3.85;;
52470;SDS011;38382;53.160;7.026;2022-11-25T01:18:38;15.10;;;3.92;;
52470;SDS011;38382;53.160;7.026;2022-11-25T01:21:08;13.90;;;3.80;;
52470;SDS011;38382;53.160;7.026;2022-11-25T01:23:35;19.13;;;4.45;;
52470;SDS011;38382;53.160;7.026;2022-11-25T01:26:02;12.55;;;3.83;;
52470;SDS011;38382;53.160;7.026;2022-11-25T01:28:28;18.08;;;4.22;;
52470;SDS011;38382;53.160;7.026;2022-11-25T01:33:28;10.50;;;3.80;;
52470;SDS011;38382;53.160;7.026;2022-11-25T01:35:58;17.38;;;4.43;;
52470;SDS011;38382;53.160;7.026;2022-11-25T01:38:55;14.00;;;4.30;;
52470;SDS011;38382;53.160;7.026;2022-11-25T01:41:22;16.25;;;4.00;;
52470;SDS011;38382;53.160;7.026;2022-11-25T01:44:06;16.40;;;4.10;;
52470;SDS011;38382;53.160;7.026;2022-11-25T01:49:41;12.43;;;4.32;;
52470;SDS011;38382;53.160;7.026;2022-11-25T01:52:19;14.60;;;3.80;;
52470;SDS011;38382;53.160;7.026;2022-11-25T01:55:00;10.18;;;3.53;;
52470;SDS011;38382;53.160;7.026;2022-11-25T01:57:46;11.77;;;4.45;;
52470;SDS011;38382;53.160;7.026;2022-11-25T02:00:16;17.33;;;4.03;;
52470;SDS011;38382;53.160;7.026;2022-11-25T02:02:42;15.80;;;4.05;;
52470;SDS011;38382;53.160;7.026;2022-11-25T02:05:09;17.02;;;4.20;;
52470;SDS011;38382;53.160;7.026;2022-11-25T02:07:41;14.90;;;3.60;;
52470;SDS011;38382;53.160;7.026;2022-11-25T02:10:11;10.60;;;3.50;;
52470;SDS011;38382;53.160;7.026;2022-11-25T02:12:39;12.60;;;3.70;;
52470;SDS011;38382;53.160;7.026;2022-11-25T02:15:07;15.13;;;3.85;;
52470;SDS011;38382;53.160;7.026;2022-11-25T02:17:33;11.15;;;3.75;;
52470;SDS011;38382;53.160;7.026;2022-11-25T02:20:04;14.15;;;3.42;;
52470;SDS011;38382;53.160;7.026;2022-11-25T02:22:51;18.00;;;4.28;;
52470;SDS011;38382;53.160;7.026;2022-11-25T02:25:26;10.90;;;3.30;;
52470;SDS011;38382;53.160;7.026;2022-11-25T02:27:59;14.60;;;3.85;;
52470;SDS011;38382;53.160;7.026;2022-11-25T02:30:28;19.48;;;4.45;;
52470;SDS011;38382;53.160;7.026;2022-11-25T02:32:54;15.43;;;3.80;;
52470;SDS011;38382;53.160;7.026;2022-11-25T02:38:04;13.95;;;3.60;;
52470;SDS011;38382;53.160;7.026;2022-11-25T02:43:30;12.27;;;3.33;;
52470;SDS011;38382;53.160;7.026;2022-11-25T02:46:00;13.55;;;3.70;;
52470;SDS011;38382;53.160;7.026;2022-11-25T02:48:32;14.00;;;3.53;;
52470;SDS011;38382;53.160;7.026;2022-11-25T02:51:01;13.80;;;3.55;;
52470;SDS011;38382;53.160;7.026;2022-11-25T02:53:27;9.95;;;3.58;;
52470;SDS011;38382;53.160;7.026;2022-11-25T02:55:52;12.13;;;3.60;;
52470;SDS011;38382;53.160;7.026;2022-11-25T02:58:19;11.82;;;3.58;;
52470;SDS011;38382;53.160;7.026;2022-11-25T03:00:45;17.75;;;4.05;;
52470;SDS011;38382;53.160;7.026;2022-11-25T03:03:11;15.88;;;3.88;;
52470;SDS011;38382;53.160;7.026;2022-11-25T03:05:38;12.32;;;3.83;;
52470;SDS011;38382;53.160;7.026;2022-11-25T03:08:04;15.27;;;4.38;;
52470;SDS011;38382;53.160;7.026;2022-11-25T03:10:30;16.15;;;4.03;;
52470;SDS011;38382;53.160;7.026;2022-11-25T03:12:56;24.13;;;4.75;;
52470;SDS011;38382;53.160;7.026;2022-11-25T03:15:22;12.50;;;3.72;;
52470;SDS011;38382;53.160;7.026;2022-11-25T03:17:48;16.05;;;4.10;;
52470;SDS011;38382;53.160;7.026;2022-11-25T03:20:13;16.50;;;4.15;;
52470;SDS011;38382;53.160;7.026;2022-11-25T03:22:40;16.08;;;4.30;;
52470;SDS011;38382;53.160;7.026;2022-11-25T03:25:07;19.35;;;4.63;;
52470;SDS011;38382;53.160;7.026;2022-11-25T03:27:34;19.48;;;3.90;;
52470;SDS011;38382;53.160;7.026;2022-11-25T03:30:00;16.38;;;4.85;;
52470;SDS011;38382;53.160;7.026;2022-11-25T03:32:26;28.77;;;5.00;;
52470;SDS011;38382;53.160;7.026;2022-11-25T03:34:52;14.82;;;4.13;;
52470;SDS011;38382;53.160;7.026;2022-11-25T03:37:17;16.65;;;4.13;;
52470;SDS011;38382;53.160;7.026;2022-11-25T03:39:43;15.95;;;4.57;;
52470;SDS011;38382;53.160;7.026;2022-11-25T03:42:10;14.30;;;4.20;;
52470;SDS011;38382;53.160;7.026;2022-11-25T03:44:35;15.48;;;4.55;;
52470;SDS011;38382;53.160;7.026;2022-11-25T03:47:01;17.25;;;4.55;;
52470;SDS011;38382;53.160;7.026;2022-11-25T03:49:27;16.92;;;4.47;;
52470;SDS011;38382;53.160;7.026;2022-11-25T03:51:53;21.17;;;4.15;;
52470;SDS011;38382;53.160;7.026;2022-11-25T03:54:19;14.65;;;4.03;;
52470;SDS011;38382;53.160;7.026;2022-11-25T03:56:44;16.45;;;4.63;;
52470;SDS011;38382;53.160;7.026;2022-11-25T03:59:10;15.18;;;4.43;;
52470;SDS011;38382;53.160;7.026;2022-11-25T04:01:36;19.42;;;5.00;;
52470;SDS011;38382;53.160;7.026;2022-11-25T04:04:02;20.48;;;4.40;;
52470;SDS011;38382;53.160;7.026;2022-11-25T04:06:28;16.58;;;4.60;;
52470;SDS011;38382;53.160;7.026;2022-11-25T04:08:54;12.13;;;4.60;;
52470;SDS011;38382;53.160;7.026;2022-11-25T04:11:20;14.07;;;4.38;;
52470;SDS011;38382;53.160;7.026;2022-11-25T04:13:45;19.45;;;4.70;;
52470;SDS011;38382;53.160;7.026;2022-11-25T04:16:18;15.05;;;4.47;;
52470;SDS011;38382;53.160;7.026;2022-11-25T04:18:49;13.00;;;4.65;;
52470;SDS011;38382;53.160;7.026;2022-11-25T04:21:15;15.45;;;4.47;;
52470;SDS011;38382;53.160;7.026;2022-11-25T04:23:40;17.13;;;4.60;;
52470;SDS011;38382;53.160;7.026;2022-11-25T04:26:06;15.63;;;4.82;;
52470;SDS011;38382;53.160;7.026;2022-11-25T04:28:32;16.48;;;4.55;;
52470;SDS011;38382;53.160;7.026;2022-11-25T04:30:57;17.50;;;4.10;;
52470;SDS011;38382;53.160;7.026;2022-11-25T04:33:23;16.70;;;4.38;;
52470;SDS011;38382;53.160;7.026;2022-11-25T04:35:49;17.80;;;5.38;;
52470;SDS011;38382;53.160;7.026;2022-11-25T04:38:15;16.55;;;4.80;;
52470;SDS011;38382;53.160;7.026;2022-11-25T04:40:40;14.02;;;4.72;;
52470;SDS011;38382;53.160;7.026;2022-11-25T04:43:06;19.55;;;4.97;;
52470;SDS011;38382;53.160;7.026;2022-11-25T04:45:32;18.13;;;4.97;;
52470;SDS011;38382;53.160;7.026;2022-11-25T04:47:58;15.18;;;4.60;;
52470;SDS011;38382;53.160;7.026;2022-11-25T04:50:24;14.05;;;5.00;;
52470;SDS011;38382;53.160;7.026;2022-11-25T04:52:49;18.35;;;4.78;;
52470;SDS011;38382;53.160;7.026;2022-11-25T04:55:15;17.38;;;4.80;;
52470;SDS011;38382;53.160;7.026;2022-11-25T04:57:41;23.75;;;5.20;;
52470;SDS011;38382;53.160;7.026;2022-11-25T05:00:07;15.80;;;4.88;;
52470;SDS011;38382;53.160;7.026;2022-11-25T05:02:33;23.23;;;5.10;;
52470;SDS011;38382;53.160;7.026;2022-11-25T05:04:59;17.75;;;4.93;;
52470;SDS011;38382;53.160;7.026;2022-11-25T05:07:26;17.17;;;5.40;;
52470;SDS011;38382;53.160;7.026;2022-11-25T05:09:52;18.67;;;5.47;;
52470;SDS011;38382;53.160;7.026;2022-11-25T05:12:23;15.95;;;5.00;;
52470;SDS011;38382;53.160;7.026;2022-11-25T05:14:50;16.37;;;4.83;;
52470;SDS011;38382;53.160;7.026;2022-11-25T05:17:20;14.13;;;4.40;;
52470;SDS011;38382;53.160;7.026;2022-11-25T05:19:53;15.60;;;4.68;;
52470;SDS011;38382;53.160;7.026;2022-11-25T05:22:21;21.48;;;5.15;;
52470;SDS011;38382;53.160;7.026;2022-11-25T05:24:51;16.88;;;5.07;;
52470;SDS011;38382;53.160;7.026;2022-11-25T05:27:17;15.82;;;5.15;;
52470;SDS011;38382;53.160;7.026;2022-11-25T05:29:43;21.23;;;4.88;;
52470;SDS011;38382;53.160;7.026;2022-11-25T05:32:09;13.82;;;4.63;;
52470;SDS011;38382;53.160;7.026;2022-11-25T05:34:36;19.45;;;5.10;;
52470;SDS011;38382;53.160;7.026;2022-11-25T05:37:03;19.65;;;4.78;;
52470;SDS011;38382;53.160;7.026;2022-11-25T05:39:29;16.65;;;4.70;;
52470;SDS011;38382;53.160;7.026;2022-11-25T05:41:55;14.45;;;5.05;;
52470;SDS011;38382;53.160;7.026;2022-11-25T05:44:20;15.65;;;4.88;;
52470;SDS011;38382;53.160;7.026;2022-11-25T05:46:46;26.35;;;5.55;;
52470;SDS011;38382;53.160;7.026;2022-11-25T05:49:13;16.40;;;5.03;;
52470;SDS011;38382;53.160;7.026;2022-11-25T05:51:39;19.92;;;4.72;;
52470;SDS011;38382;53.160;7.026;2022-11-25T05:54:05;21.20;;;5.20;;
52470;SDS011;38382;53.160;7.026;2022-11-25T05:56:31;18.35;;;4.78;;
52470;SDS011;38382;53.160;7.026;2022-11-25T05:58:58;16.73;;;4.97;;
52470;SDS011;38382;53.160;7.026;2022-11-25T06:01:24;16.83;;;5.28;;
52470;SDS011;38382;53.160;7.026;2022-11-25T06:03:49;17.63;;;5.10;;
52470;SDS011;38382;53.160;7.026;2022-11-25T06:06:15;18.05;;;5.35;;
52470;SDS011;38382;53.160;7.026;2022-11-25T06:08:41;19.17;;;5.32;;
52470;SDS011;38382;53.160;7.026;2022-11-25T06:11:08;19.63;;;5.75;;
52470;SDS011;38382;53.160;7.026;2022-11-25T06:13:42;21.90;;;5.03;;
52470;SDS011;38382;53.160;7.026;2022-11-25T06:16:12;20.35;;;5.45;;
52470;SDS011;38382;53.160;7.026;2022-11-25T06:18:40;20.90;;;5.80;;
52470;SDS011;38382;53.160;7.026;2022-11-25T06:21:06;17.67;;;5.55;;
52470;SDS011;38382;53.160;7.026;2022-11-25T06:23:33;19.60;;;5.15;;
52470;SDS011;38382;53.160;7.026;2022-11-25T06:26:07;20.45;;;5.28;;
52470;SDS011;38382;53.160;7.026;2022-11-25T06:28:36;16.08;;;5.65;;
52470;SDS011;38382;53.160;7.026;2022-11-25T06:31:15;14.13;;;5.72;;
52470;SDS011;38382;53.160;7.026;2022-11-25T06:33:46;19.10;;;5.38;;
52470;SDS011;38382;53.160;7.026;2022-11-25T06:36:12;22.25;;;6.05;;
52470;SDS011;38382;53.160;7.026;2022-11-25T06:38:45;25.55;;;6.30;;
52470;SDS011;38382;53.160;7.026;2022-11-25T06:41:12;21.30;;;5.70;;
52470;SDS011;38382;53.160;7.026;2022-11-25T06:43:38;17.48;;;5.88;;
52470;SDS011;38382;53.160;7.026;2022-11-25T06:46:05;26.88;;;6.25;;
52470;SDS011;38382;53.160;7.026;2022-11-25T06:48:32;21.75;;;5.85;;
52470;SDS011;38382;53.160;7.026;2022-11-25T06:50:59;21.95;;;6.38;;
52470;SDS011;38382;53.160;7.026;2022-11-25T06:53:28;22.35;;;6.38;;
52470;SDS011;38382;53.160;7.026;2022-11-25T06:56:01;19.30;;;5.93;;
52470;SDS011;38382;53.160;7.026;2022-11-25T06:58:36;14.75;;;5.78;;
52470;SDS011;38382;53.160;7.026;2022-11-25T07:04:02;15.23;;;5.85;;
52470;SDS011;38382;53.160;7.026;2022-11-25T07:06:29;24.00;;;6.45;;
52470;SDS011;38382;53.160;7.026;2022-11-25T07:08:56;18.80;;;6.57;;
52470;SDS011;38382;53.160;7.026;2022-11-25T07:11:23;20.27;;;6.82;;
52470;SDS011;38382;53.160;7.026;2022-11-25T07:13:54;18.33;;;6.72;;
52470;SDS011;38382;53.160;7.026;2022-11-25T07:16:25;20.55;;;7.38;;
52470;SDS011;38382;53.160;7.026;2022-11-25T07:18:52;20.52;;;6.88;;
52470;SDS011;38382;53.160;7.026;2022-11-25T07:21:21;18.67;;;7.10;;
52470;SDS011;38382;53.160;7.026;2022-11-25T07:23:49;25.73;;;7.10;;
52470;SDS011;38382;53.160;7.026;2022-11-25T07:26:23;18.85;;;6.80;;
52470;SDS011;38382;53.160;7.026;2022-11-25T07:28:50;21.52;;;6.93;;
52470;SDS011;38382;53.160;7.026;2022-11-25T07:31:18;26.02;;;7.22;;
52470;SDS011;38382;53.160;7.026;2022-11-25T07:33:46;26.45;;;7.20;;
52470;SDS011;38382;53.160;7.026;2022-11-25T07:36:14;21.17;;;6.97;;
52470;SDS011;38382;53.160;7.026;2022-11-25T07:38:40;18.45;;;7.15;;
52470;SDS011;38382;53.160;7.026;2022-11-25T07:41:07;24.58;;;7.20;;
52470;SDS011;38382;53.160;7.026;2022-11-25T07:43:35;22.73;;;7.53;;
52470;SDS011;38382;53.160;7.026;2022-11-25T07:46:35;17.83;;;6.68;;
52470;SDS011;38382;53.160;7.026;2022-11-25T07:49:07;21.85;;;6.80;;
52470;SDS011;38382;53.160;7.026;2022-11-25T07:54:06;17.20;;;6.70;;
52470;SDS011;38382;53.160;7.026;2022-11-25T07:56:34;17.02;;;6.38;;
52470;SDS011;38382;53.160;7.026;2022-11-25T07:59:01;15.38;;;6.22;;
52470;SDS011;38382;53.160;7.026;2022-11-25T08:01:31;15.30;;;6.10;;
52470;SDS011;38382;53.160;7.026;2022-11-25T08:03:56;20.55;;;6.00;;
52470;SDS011;38382;53.160;7.026;2022-11-25T08:06:23;22.77;;;5.80;;
52470;SDS011;38382;53.160;7.026;2022-11-25T08:08:51;17.45;;;6.55;;
52470;SDS011;38382;53.160;7.026;2022-11-25T08:11:21;12.95;;;5.70;;
52470;SDS011;38382;53.160;7.026;2022-11-25T08:13:48;18.80;;;5.95;;
52470;SDS011;38382;53.160;7.026;2022-11-25T08:16:15;13.32;;;5.30;;
52470;SDS011;38382;53.160;7.026;2022-11-25T08:18:43;12.32;;;5.38;;
52470;SDS011;38382;53.160;7.026;2022-11-25T08:21:10;12.35;;;5.05;;
52470;SDS011;38382;53.160;7.026;2022-11-25T08:23:37;15.40;;;5.60;;
52470;SDS011;38382;53.160;7.026;2022-11-25T08:26:08;15.43;;;5.40;;
52470;SDS011;38382;53.160;7.026;2022-11-25T08:28:35;13.88;;;5.50;;
52470;SDS011;38382;53.160;7.026;2022-11-25T08:31:05;15.95;;;5.57;;
52470;SDS011;38382;53.160;7.026;2022-11-25T08:33:33;14.40;;;5.13;;
52470;SDS011;38382;53.160;7.026;2022-11-25T08:35:59;15.68;;;5.55;;
52470;SDS011;38382;53.160;7.026;2022-11-25T08:38:25;16.95;;;5.07;;
52470;SDS011;38382;53.160;7.026;2022-11-25T08:40:51;12.90;;;4.80;;
52470;SDS011;38382;53.160;7.026;2022-11-25T08:43:18;18.38;;;5.72;;
52470;SDS011;38382;53.160;7.026;2022-11-25T08:45:45;14.45;;;5.15;;
52470;SDS011;38382;53.160;7.026;2022-11-25T08:48:12;11.90;;;4.97;;
52470;SDS011;38382;53.160;7.026;2022-11-25T08:50:38;12.43;;;5.07;;
52470;SDS011;38382;53.160;7.026;2022-11-25T08:53:05;15.50;;;5.45;;
52470;SDS011;38382;53.160;7.026;2022-11-25T08:55:31;18.02;;;5.57;;
52470;SDS011;38382;53.160;7.026;2022-11-25T08:57:56;13.38;;;5.03;;
52470;SDS011;38382;53.160;7.026;2022-11-25T09:00:22;10.75;;;4.60;;
52470;SDS011;38382;53.160;7.026;2022-11-25T09:02:48;14.20;;;4.97;;
52470;SDS011;38382;53.160;7.026;2022-11-25T09:05:14;14.90;;;6.00;;
52470;SDS011;38382;53.160;7.026;2022-11-25T09:07:41;18.88;;;5.63;;
52470;SDS011;38382;53.160;7.026;2022-11-25T09:10:09;14.90;;;5.70;;
52470;SDS011;38382;53.160;7.026;2022-11-25T09:12:38;15.30;;;6.03;;
52470;SDS011;38382;53.160;7.026;2022-11-25T09:15:04;13.00;;;5.57;;
52470;SDS011;38382;53.160;7.026;2022-11-25T09:17:30;15.00;;;6.53;;
52470;SDS011;38382;53.160;7.026;2022-11-25T09:19:58;15.18;;;6.03;;
52470;SDS011;38382;53.160;7.026;2022-11-25T09:22:24;14.55;;;5.75;;
52470;SDS011;38382;53.160;7.026;2022-11-25T09:24:50;17.48;;;5.88;;
52470;SDS011;38382;53.160;7.026;2022-11-25T09:27:18;13.80;;;5.95;;
52470;SDS011;38382;53.160;7.026;2022-11-25T09:29:44;12.50;;;5.60;;
52470;SDS011;38382;53.160;7.026;2022-11-25T09:32:10;16.38;;;5.60;;
52470;SDS011;38382;53.160;7.026;2022-11-25T09:34:35;12.15;;;5.30;;
52470;SDS011;38382;53.160;7.026;2022-11-25T09:37:01;16.55;;;4.93;;
52470;SDS011;38382;53.160;7.026;2022-11-25T09:39:27;15.98;;;5.22;;
52470;SDS011;38382;53.160;7.026;2022-11-25T09:41:58;10.88;;;5.18;;
52470;SDS011;38382;53.160;7.026;2022-11-25T09:45:10;12.95;;;5.07;;
52470;SDS011;38382;53.160;7.026;2022-11-25T09:51:08;16.25;;;5.03;;
52470;SDS011;38382;53.160;7.026;2022-11-25T09:56:09;14.07;;;5.18;;
52470;SDS011;38382;53.160;7.026;2022-11-25T10:01:45;11.80;;;4.80;;
52470;SDS011;38382;53.160;7.026;2022-11-25T10:04:39;12.90;;;4.68;;
52470;SDS011;38382;53.160;7.026;2022-11-25T10:07:20;12.38;;;4.93;;
52470;SDS011;38382;53.160;7.026;2022-11-25T10:10:02;12.27;;;4.40;;
52470;SDS011;38382;53.160;7.026;2022-11-25T10:12:29;10.23;;;4.90;;
52470;SDS011;38382;53.160;7.026;2022-11-25T10:15:05;11.73;;;5.05;;
52470;SDS011;38382;53.160;7.026;2022-11-25T10:22:55;12.65;;;4.30;;
52470;SDS011;38382;53.160;7.026;2022-11-25T10:25:32;11.20;;;5.07;;
52470;SDS011;38382;53.160;7.026;2022-11-25T10:28:03;10.35;;;4.78;;
52470;SDS011;38382;53.160;7.026;2022-11-25T10:30:46;12.18;;;4.93;;
52470;SDS011;38382;53.160;7.026;2022-11-25T10:33:27;12.82;;;4.22;;
52470;SDS011;38382;53.160;7.026;2022-11-25T10:35:57;10.25;;;4.70;;
52470;SDS011;38382;53.160;7.026;2022-11-25T10:40:54;14.88;;;4.43;;
52470;SDS011;38382;53.160;7.026;2022-11-25T10:43:20;16.30;;;4.80;;
52470;SDS011;38382;53.160;7.026;2022-11-25T10:45:55;11.15;;;4.60;;
52470;SDS011;38382;53.160;7.026;2022-11-25T10:54:18;10.27;;;4.07;;
52470;SDS011;38382;53.160;7.026;2022-11-25T10:56:49;10.43;;;4.28;;
52470;SDS011;38382;53.160;7.026;2022-11-25T10:59:21;8.63;;;4.25;;
52470;SDS011;38382;53.160;7.026;2022-11-25T11:02:04;11.82;;;4.10;;
52470;SDS011;38382;53.160;7.026;2022-11-25T11:05:01;8.20;;;4.30;;
52470;SDS011;38382;53.160;7.026;2022-11-25T11:07:41;10.25;;;3.65;;
52470;SDS011;38382;53.160;7.026;2022-11-25T11:12:55;10.15;;;3.45;;
52470;SDS011;38382;53.160;7.026;2022-11-25T11:18:23;8.35;;;3.40;;
52470;SDS011;38382;53.160;7.026;2022-11-25T11:20:57;13.40;;;3.58;;
52470;SDS011;38382;53.160;7.026;2022-11-25T11:23:24;9.93;;;3.65;;
52470;SDS011;38382;53.160;7.026;2022-11-25T11:25:59;10.98;;;4.03;;
52470;SDS011;38382;53.160;7.026;2022-11-25T11:28:37;9.93;;;3.47;;
52470;SDS011;38382;53.160;7.026;2022-11-25T11:31:21;11.05;;;3.65;;
52470;SDS011;38382;53.160;7.026;2022-11-25T11:34:20;9.63;;;3.45;;
52470;SDS011;38382;53.160;7.026;2022-11-25T11:37:04;8.55;;;3.50;;
52470;SDS011;38382;53.160;7.026;2022-11-25T11:50:39;10.50;;;3.20;;
52470;SDS011;38382;53.160;7.026;2022-11-25T11:55:42;9.10;;;3.00;;
52470;SDS011;38382;53.160;7.026;2022-11-25T12:03:45;10.88;;;3.33;;
52470;SDS011;38382;53.160;7.026;2022-11-25T12:06:21;9.05;;;2.83;;
52470;SDS011;38382;53.160;7.026;2022-11-25T12:08:50;10.93;;;3.20;;
52470;SDS011;38382;53.160;7.026;2022-11-25T12:11:31;13.45;;;3.30;;
52470;SDS011;38382;53.160;7.026;2022-11-25T12:14:09;10.35;;;2.80;;
52470;SDS011;38382;53.160;7.026;2022-11-25T12:16:56;9.82;;;3.20;;
52470;SDS011;38382;53.160;7.026;2022-11-25T12:19:29;8.90;;;2.80;;
52470;SDS011;38382;53.160;7.026;2022-11-25T12:38:11;9.93;;;2.80;;
52470;SDS011;38382;53.160;7.026;2022-11-25T12:40:41;10.35;;;3.05;;
52470;SDS011;38382;53.160;7.026;2022-11-25T12:48:40;9.75;;;2.75;;
52470;SDS011;38382;53.160;7.026;2022-11-25T12:59:59;9.90;;;2.65;;
52470;SDS011;38382;53.160;7.026;2022-11-25T13:15:52;8.82;;;2.50;;
52470;SDS011;38382;53.160;7.026;2022-11-25T13:18:21;12.68;;;3.05;;
52470;SDS011;38382;53.160;7.026;2022-11-25T13:20:52;11.18;;;2.88;;
52470;SDS011;38382;53.160;7.026;2022-11-25T13:25:49;11.80;;;2.80;;
52470;SDS011;38382;53.160;7.026;2022-11-25T13:28:36;11.25;;;2.97;;
52470;SDS011;38382;53.160;7.026;2022-11-25T13:36:17;11.25;;;2.83;;
52470;SDS011;38382;53.160;7.026;2022-11-25T13:46:26;16.40;;;3.22;;
52470;SDS011;38382;53.160;7.026;2022-11-25T13:49:22;13.10;;;3.10;;
52470;SDS011;38382;53.160;7.026;2022-11-25T13:51:52;11.80;;;2.80;;
52470;SDS011;38382;53.160;7.026;2022-11-25T13:54:20;16.25;;;3.17;;
